Time;durP1;ratioP1;P1;durP2;ratioP2;P2;SDS_P1;SDS_P2;PMS_P1;PMS_P2;Temp;Humidity;BMP_temperature;BMP_pressure;BME280_temperature;BME280_humidity;BME280_pressure;Samples;Min_cycle;Max_cycle;Signal;HPM_P1;HPM_P2
2023/03/31 00:01:15;;;;;;;5.32;2.05;;;19.90;60.20;;;;;;5054445;28;20048;-59
2023/03/31 00:03:42;;;;;;;5.82;2.10;;;19.80;60.20;;;;;;5053879;28;20056;-60
2023/03/31 00:06:10;;;;;;;6.18;2.17;;;19.80;60.20;;;;;;5048436;28;20396;-60
2023/03/31 00:08:35;;;;;;;6.97;2.42;;;19.90;60.20;;;;;;5070187;28;20060;-60
2023/03/31 00:11:06;;;;;;;6.78;2.20;;;19.80;60.10;;;;;;5053310;28;20438;-60
2023/03/31 00:13:31;;;;;;;7.55;2.60;;;19.80;60.10;;;;;;5054870;28;20145;-60
2023/03/31 00:16:04;;;;;;;6.53;1.95;;;19.80;60.20;;;;;;5036726;28;20068;-61
2023/03/31 00:18:30;;;;;;;6.72;1.80;;;19.80;60.10;;;;;;5053903;28;20693;-60
2023/03/31 00:21:08;;;;;;;5.80;1.60;;;19.80;60.10;;;;;;5054439;28;20114;-60
2023/03/31 00:23:34;;;;;;;6.47;2.40;;;19.80;60.10;;;;;;5054284;28;20045;-60
2023/03/31 00:25:59;;;;;;;6.65;2.17;;;19.70;60.10;;;;;;5053627;28;20179;-60
2023/03/31 00:28:25;;;;;;;6.97;1.90;;;19.80;60.10;;;;;;5053105;28;20136;-60
2023/03/31 00:30:51;;;;;;;5.97;2.03;;;19.70;60.10;;;;;;5054540;28;20044;-60
2023/03/31 00:33:17;;;;;;;7.00;2.17;;;19.70;60.00;;;;;;5053167;28;20504;-60
2023/03/31 00:35:44;;;;;;;6.88;1.75;;;19.70;60.10;;;;;;5053466;28;20037;-60
2023/03/31 00:38:12;;;;;;;4.83;1.60;;;19.70;60.10;;;;;;5054077;28;20049;-60
2023/03/31 00:40:44;;;;;;;5.78;1.88;;;19.70;60.10;;;;;;5053348;28;20489;-60
2023/03/31 00:43:16;;;;;;;4.90;1.70;;;19.70;60.10;;;;;;5052804;28;20044;-60
2023/03/31 00:45:41;;;;;;;7.85;2.45;;;19.70;60.10;;;;;;5036675;28;20037;-59
2023/03/31 00:48:12;;;;;;;5.85;2.08;;;19.70;60.10;;;;;;5053225;28;20439;-59
2023/03/31 00:51:03;;;;;;;7.05;2.15;;;19.70;60.10;;;;;;5039257;28;20314;-59
2023/03/31 00:53:29;;;;;;;5.78;1.75;;;19.70;60.10;;;;;;5041086;28;20097;-59
2023/03/31 00:55:58;;;;;;;4.63;1.83;;;19.70;60.10;;;;;;5039340;28;20052;-59
2023/03/31 00:58:27;;;;;;;;;;;19.70;60.10;;;;;;5056451;28;20045;-60
2023/03/31 01:00:54;;;;;;;4.32;1.45;;;19.70;60.00;;;;;;5055189;28;19959;-59
2023/03/31 01:03:21;;;;;;;6.18;1.90;;;19.70;60.10;;;;;;5055741;28;20125;-59
2023/03/31 01:05:49;;;;;;;8.23;2.08;;;19.70;60.10;;;;;;5039456;28;20048;-59
2023/03/31 01:08:15;;;;;;;;;;;19.70;60.10;;;;;;5055358;28;20485;-60
2023/03/31 01:10:44;;;;;;;5.78;1.50;;;19.70;60.10;;;;;;5055856;28;20436;-60
2023/03/31 01:13:10;;;;;;;4.68;1.65;;;19.70;60.10;;;;;;5072993;28;20061;-59
2023/03/31 01:15:36;;;;;;;6.63;1.73;;;19.60;60.10;;;;;;5072599;28;20037;-59
2023/03/31 01:18:02;;;;;;;4.55;1.65;;;19.70;60.10;;;;;;5073079;28;20047;-59
2023/03/31 01:21:13;;;;;;;4.85;1.40;;;19.60;60.20;;;;;;5038857;28;20040;-60
2023/03/31 01:23:39;;;;;;;6.75;1.80;;;19.60;60.00;;;;;;5052730;28;20068;-59
2023/03/31 01:26:09;;;;;;;6.32;1.67;;;19.60;60.20;;;;;;5073199;28;20109;-60
2023/03/31 01:28:37;;;;;;;3.92;1.40;;;19.70;60.10;;;;;;5054525;28;20080;-60
2023/03/31 01:31:30;;;;;;;5.50;1.50;;;19.60;60.10;;;;;;5072686;28;20047;-61
2023/03/31 01:33:59;;;;;;;4.60;1.60;;;19.60;60.00;;;;;;5073130;28;20095;-60
2023/03/31 01:36:47;;;;;;;4.07;1.30;;;19.60;60.20;;;;;;5054281;28;20048;-60
2023/03/31 01:39:13;;;;;;;;;;;19.60;60.10;;;;;;5055390;28;20392;-60
2023/03/31 01:41:41;;;;;;;5.97;1.23;;;19.60;60.00;;;;;;5073115;28;20372;-60
2023/03/31 01:44:13;;;;;;;3.63;1.40;;;19.60;60.20;;;;;;5050184;28;20435;-60
2023/03/31 01:47:00;;;;;;;5.68;1.75;;;19.60;60.20;;;;;;5071242;28;20040;-60
2023/03/31 01:49:44;;;;;;;3.50;1.27;;;19.60;60.10;;;;;;5053926;28;20135;-59
2023/03/31 01:52:26;;;;;;;4.95;1.35;;;19.60;60.20;;;;;;5040141;28;20064;-60
2023/03/31 01:55:06;;;;;;;4.53;1.27;;;19.60;60.10;;;;;;5039420;28;20044;-60
2023/03/31 01:57:36;;;;;;;4.88;1.45;;;19.50;60.10;;;;;;5053927;28;20456;-60
2023/03/31 02:00:32;;;;;;;5.22;1.50;;;19.50;60.10;;;;;;5071798;28;20392;-60
2023/03/31 02:03:07;;;;;;;4.70;1.58;;;19.50;60.00;;;;;;5038997;28;20397;-60
2023/03/31 02:05:36;;;;;;;4.05;1.30;;;19.50;60.10;;;;;;5051327;28;20052;-60
2023/03/31 02:08:14;;;;;;;5.85;1.58;;;19.50;60.10;;;;;;5018115;28;20049;-60
2023/03/31 02:10:40;;;;;;;5.13;1.40;;;19.50;60.10;;;;;;5032775;28;20032;-60
2023/03/31 02:13:05;;;;;;;3.70;1.20;;;19.60;60.20;;;;;;5037635;28;20052;-60
2023/03/31 02:15:37;;;;;;;5.07;1.13;;;19.50;60.10;;;;;;5054330;28;20048;-60
2023/03/31 02:18:04;;;;;;;5.18;1.58;;;19.50;60.10;;;;;;5037654;28;20155;-60
2023/03/31 02:20:31;;;;;;;4.20;1.20;;;19.50;60.20;;;;;;5038365;28;20094;-61
2023/03/31 02:22:56;;;;;;;5.30;1.48;;;19.50;60.10;;;;;;5038105;28;20045;-60
2023/03/31 02:25:25;;;;;;;4.68;1.30;;;19.50;60.10;;;;;;5053284;28;20400;-60
2023/03/31 02:27:52;;;;;;;;;;;19.50;60.10;;;;;;5038124;28;20040;-60
2023/03/31 02:30:18;;;;;;;6.30;1.35;;;19.50;60.00;;;;;;5054001;28;19931;-60
2023/03/31 02:32:45;;;;;;;4.70;1.10;;;19.50;60.20;;;;;;5071586;28;20577;-60
2023/03/31 02:35:15;;;;;;;3.50;1.10;;;19.40;60.10;;;;;;5053903;28;20088;-60
2023/03/31 02:37:42;;;;;;;3.20;1.13;;;19.50;60.70;;;;;;5054227;28;20048;-60
2023/03/31 02:40:14;;;;;;;5.00;1.15;;;19.50;60.10;;;;;;5053134;28;20062;-60
2023/03/31 02:42:40;;;;;;;4.05;1.13;;;19.40;60.00;;;;;;5054426;28;20507;-60
2023/03/31 02:45:26;;;;;;;3.83;1.48;;;19.50;60.10;;;;;;5053729;28;20037;-60
2023/03/31 02:47:52;;;;;;;3.80;1.20;;;19.50;60.10;;;;;;5071928;28;20079;-60
2023/03/31 02:50:17;;;;;;;2.70;1.10;;;19.50;60.10;;;;;;5053340;28;20083;-60
2023/03/31 02:53:08;;;;;;;3.13;0.95;;;19.40;60.10;;;;;;5036860;28;20048;-60
2023/03/31 02:55:40;;;;;;;5.40;1.52;;;19.50;60.10;;;;;;5042649;28;20140;-60
2023/03/31 02:58:12;;;;;;;4.70;1.50;;;19.50;60.10;;;;;;5054366;28;20041;-61
2023/03/31 03:01:07;;;;;;;2.78;1.00;;;19.50;60.20;;;;;;5040552;28;20044;-60
2023/03/31 03:03:36;;;;;;;2.88;1.20;;;19.50;60.10;;;;;;5044577;28;20491;-60
2023/03/31 03:06:30;;;;;;;4.90;1.05;;;19.50;60.10;;;;;;5075164;28;20570;-60
2023/03/31 03:09:08;;;;;;;4.05;1.20;;;19.50;60.10;;;;;;5075826;28;20396;-60
2023/03/31 03:11:36;;;;;;;3.63;1.05;;;19.50;60.10;;;;;;5075103;28;20399;-60
2023/03/31 03:14:27;;;;;;;2.33;0.95;;;19.50;60.10;;;;;;5057000;28;20055;-60
2023/03/31 03:17:08;;;;;;;5.00;1.13;;;19.50;60.10;;;;;;5075859;28;20124;-60
2023/03/31 03:19:33;;;;;;;3.45;1.10;;;19.50;60.10;;;;;;5042181;28;20049;-60
2023/03/31 03:21:59;;;;;;;2.63;1.10;;;19.50;60.00;;;;;;5074635;28;20051;-60
2023/03/31 03:24:28;;;;;;;3.10;1.10;;;19.50;60.10;;;;;;5057429;28;20083;-60
2023/03/31 03:26:54;;;;;;;3.38;1.00;;;19.50;60.00;;;;;;5075943;28;20063;-60
2023/03/31 03:29:19;;;;;;;3.10;1.15;;;19.50;60.00;;;;;;5074260;28;20431;-60
2023/03/31 03:31:45;;;;;;;3.78;1.20;;;19.60;60.10;;;;;;5075127;28;20044;-59
2023/03/31 03:34:11;;;;;;;2.20;0.77;;;19.60;60.10;;;;;;5075144;28;20047;-60
2023/03/31 03:36:37;;;;;;;2.70;0.93;;;19.60;60.10;;;;;;5074215;28;20515;-59
2023/03/31 03:39:03;;;;;;;3.40;1.10;;;19.60;60.00;;;;;;5075281;28;20122;-60
2023/03/31 03:41:30;;;;;;;3.33;0.90;;;19.60;60.00;;;;;;5074975;28;20044;-60
2023/03/31 03:43:56;;;;;;;3.78;0.82;;;19.70;60.10;;;;;;5074444;28;20048;-59
2023/03/31 03:46:21;;;;;;;5.05;1.08;;;19.60;60.00;;;;;;5056909;28;20048;-59
2023/03/31 03:48:47;;;;;;;4.03;1.17;;;19.70;60.10;;;;;;5056552;28;20044;-60
2023/03/31 03:51:12;;;;;;;4.45;1.42;;;19.70;60.00;;;;;;5074600;28;20045;-60
2023/03/31 03:53:38;;;;;;;3.20;0.98;;;19.70;60.00;;;;;;5075293;28;20072;-59
2023/03/31 03:56:04;;;;;;;3.17;0.88;;;19.70;60.00;;;;;;5073835;28;20067;-60
2023/03/31 03:58:29;;;;;;;3.28;0.95;;;19.70;60.00;;;;;;5075235;28;20124;-59
2023/03/31 04:00:55;;;;;;;2.25;0.60;;;19.70;60.00;;;;;;5074457;28;20115;-60
2023/03/31 04:03:21;;;;;;;3.17;0.88;;;19.70;60.00;;;;;;5073225;28;20056;-60
2023/03/31 04:05:50;;;;;;;2.55;0.80;;;19.80;60.00;;;;;;5063798;28;20381;-60
2023/03/31 04:08:16;;;;;;;3.42;0.75;;;19.80;60.00;;;;;;5054242;28;20053;-59
2023/03/31 04:10:47;;;;;;;3.33;0.90;;;19.80;60.00;;;;;;5034893;28;20044;-60
2023/03/31 04:13:14;;;;;;;3.35;1.00;;;19.80;60.00;;;;;;5054476;28;20049;-59
2023/03/31 04:15:39;;;;;;;3.10;1.00;;;19.80;60.00;;;;;;5054352;28;20037;-60
2023/03/31 04:18:05;;;;;;;1.83;0.90;;;19.80;60.00;;;;;;5053573;28;20049;-60
2023/03/31 04:20:30;;;;;;;3.70;0.70;;;19.90;60.00;;;;;;5059839;28;20045;-60
2023/03/31 04:22:56;;;;;;;3.65;1.20;;;19.90;60.20;;;;;;5054681;28;20099;-60
2023/03/31 04:25:22;;;;;;;2.08;0.68;;;19.90;60.00;;;;;;5053488;28;20111;-60
2023/03/31 04:27:55;;;;;;;2.72;0.90;;;19.90;60.00;;;;;;5036847;28;20495;-59
2023/03/31 04:30:21;;;;;;;4.43;1.05;;;19.90;60.00;;;;;;5054166;28;20076;-59
2023/03/31 04:33:07;;;;;;;2.95;0.73;;;19.90;60.00;;;;;;5053506;28;20041;-59
2023/03/31 04:35:48;;;;;;;2.85;0.88;;;19.90;60.00;;;;;;5053578;28;20053;-60
2023/03/31 04:38:17;;;;;;;2.03;0.73;;;19.90;60.00;;;;;;5053211;28;20207;-59
2023/03/31 04:40:46;;;;;;;3.22;1.00;;;19.90;60.00;;;;;;5054127;28;20052;-59
2023/03/31 04:43:12;;;;;;;2.92;0.90;;;19.90;60.00;;;;;;5053734;28;20120;-59
2023/03/31 04:45:37;;;;;;;3.00;0.93;;;20.00;60.00;;;;;;5053673;28;20124;-59
2023/03/31 04:48:03;;;;;;;2.92;0.80;;;20.00;60.00;;;;;;5053768;28;20040;-59
2023/03/31 04:50:29;;;;;;;2.53;0.85;;;19.90;59.90;;;;;;5053825;28;20040;-59
2023/03/31 04:52:54;;;;;;;1.98;0.70;;;20.00;60.00;;;;;;5053541;28;20045;-60
2023/03/31 04:55:20;;;;;;;2.40;0.75;;;20.00;60.00;;;;;;5053713;28;20083;-60
2023/03/31 04:57:46;;;;;;;3.03;0.82;;;20.00;60.00;;;;;;5054069;28;20091;-59
2023/03/31 05:00:12;;;;;;;2.97;0.90;;;20.00;60.00;;;;;;5052705;28;20098;-59
2023/03/31 05:02:37;;;;;;;2.97;0.70;;;20.00;60.00;;;;;;5054023;28;20102;-59
2023/03/31 05:05:03;;;;;;;3.30;0.80;;;20.00;59.90;;;;;;5035336;28;20392;-59
2023/03/31 05:07:29;;;;;;;4.20;0.80;;;20.00;59.90;;;;;;5053073;28;20048;-59
2023/03/31 05:09:54;;;;;;;2.92;0.70;;;20.10;60.00;;;;;;5053744;28;20047;-59
2023/03/31 05:12:20;;;;;;;3.55;0.70;;;20.00;59.90;;;;;;5053251;28;20474;-59
2023/03/31 05:14:45;;;;;;;3.55;0.77;;;20.00;59.90;;;;;;5052945;28;20043;-59
2023/03/31 05:17:11;;;;;;;3.05;0.88;;;20.10;60.00;;;;;;5053523;28;20365;-59
2023/03/31 05:19:37;;;;;;;3.78;0.85;;;20.10;60.00;;;;;;5053401;28;20076;-59
2023/03/31 05:22:02;;;;;;;3.83;0.70;;;20.10;60.00;;;;;;5052157;28;20080;-59
2023/03/31 05:24:28;;;;;;;3.80;0.52;;;20.10;60.00;;;;;;5053340;28;20087;-59
2023/03/31 05:26:56;;;;;;;5.22;0.85;;;20.10;60.00;;;;;;5035488;28;20083;-59
2023/03/31 05:29:22;;;;;;;5.95;1.05;;;20.10;60.00;;;;;;5052304;28;20072;-59
2023/03/31 05:31:47;;;;;;;4.68;0.85;;;20.10;60.00;;;;;;5053545;28;20086;-59
2023/03/31 05:34:13;;;;;;;3.17;0.80;;;20.10;60.00;;;;;;5052150;28;20064;-59
2023/03/31 05:36:39;;;;;;;2.90;0.70;;;20.10;60.00;;;;;;5035335;28;20049;-59
2023/03/31 05:39:05;;;;;;;3.88;0.95;;;20.10;60.00;;;;;;5034775;28;20403;-59
2023/03/31 05:41:30;;;;;;;3.20;0.60;;;20.10;60.00;;;;;;5034659;28;20044;-67
2023/03/31 05:43:56;;;;;;;5.55;0.82;;;20.10;60.10;;;;;;5035611;28;20040;-60
2023/03/31 05:46:21;;;;;;;4.53;0.85;;;20.10;60.10;;;;;;5034817;28;20044;-61
2023/03/31 05:48:47;;;;;;;4.53;0.70;;;20.10;60.30;;;;;;5052464;28;20045;-60
2023/03/31 05:51:13;;;;;;;4.70;0.73;;;20.10;60.30;;;;;;5051763;28;20033;-58
2023/03/31 05:53:38;;;;;;;3.70;0.90;;;20.10;60.40;;;;;;5034793;28;20057;-59
2023/03/31 05:56:05;;;;;;;4.22;0.60;;;20.20;60.50;;;;;;5051935;28;20037;-59
2023/03/31 05:58:33;;;;;;;1.98;0.82;;;20.20;60.60;;;;;;5052956;28;20049;-59
2023/03/31 06:01:08;;;;;;;7.00;0.90;;;20.20;60.60;;;;;;5052767;28;20503;-59
2023/03/31 06:03:34;;;;;;;4.20;1.40;;;20.20;60.70;;;;;;5052037;28;20045;-59
2023/03/31 06:06:20;;;;;;;2.70;0.70;;;20.20;60.70;;;;;;5057098;28;20055;-60
2023/03/31 06:09:06;;;;;;;3.95;0.70;;;20.20;60.80;;;;;;5065763;28;20507;-59
2023/03/31 06:11:32;;;;;;;3.55;0.52;;;20.20;60.70;;;;;;5071117;28;20052;-60
2023/03/31 06:13:57;;;;;;;3.13;0.70;;;20.20;60.80;;;;;;5071846;28;20044;-59
2023/03/31 06:16:23;;;;;;;2.63;0.65;;;20.30;60.80;;;;;;5065332;28;20044;-59
2023/03/31 06:22:41;;;;;;;4.30;0.68;;;20.30;60.90;;;;;;5039977;28;20124;-59
2023/03/31 06:25:08;;;;;;;3.58;0.98;;;20.30;60.80;;;;;;5042527;28;20135;-60
2023/03/31 06:27:33;;;;;;;4.97;1.02;;;20.30;60.80;;;;;;5070991;28;20407;-60
2023/03/31 06:29:59;;;;;;;3.83;0.75;;;20.30;60.80;;;;;;5071884;28;20575;-62
2023/03/31 06:32:24;;;;;;;2.53;0.60;;;20.30;60.90;;;;;;5070505;28;20466;-60
2023/03/31 06:34:50;;;;;;;1.45;0.50;;;20.30;60.90;;;;;;5070632;28;20052;-60
2023/03/31 06:40:48;;;;;;;2.60;0.70;;;20.30;61.10;;;;;;5065910;28;20067;-62
2023/03/31 06:43:32;;;;;;;3.85;0.60;;;20.30;61.10;;;;;;5054209;28;20057;-60
2023/03/31 06:45:57;;;;;;;1.83;0.50;;;20.30;61.10;;;;;;5049298;28;20052;-60
2023/03/31 06:48:26;;;;;;;3.17;0.68;;;20.30;61.10;;;;;;5071699;28;20063;-60
2023/03/31 09:11:29;;;;;;;2.55;0.60;;;20.20;61.60;;;;;;5971077;23;20025;-60
2023/03/31 09:14:19;;;;;;;3.75;0.70;;;20.20;61.60;;;;;;4913937;29;20087;-59
2023/03/31 09:16:53;;;;;;;2.25;0.47;;;20.20;61.60;;;;;;4921522;29;20052;-58
2023/03/31 09:19:40;;;;;;;3.45;0.75;;;20.20;61.70;;;;;;4914203;29;20040;-59
2023/03/31 09:22:10;;;;;;;2.58;0.60;;;20.20;61.70;;;;;;4899722;29;20514;-58
2023/03/31 09:24:47;;;;;;;2.92;0.80;;;20.20;61.70;;;;;;4900009;29;20048;-59
2023/03/31 09:27:12;;;;;;;5.38;0.88;;;20.20;61.80;;;;;;4915014;29;20049;-59
2023/03/31 09:29:56;;;;;;;2.78;0.75;;;20.20;61.60;;;;;;4900334;29;20067;-59
2023/03/31 09:32:27;;;;;;;5.22;0.50;;;20.20;61.60;;;;;;4915866;29;20044;-59
2023/03/31 09:34:56;;;;;;;2.35;0.50;;;20.20;61.60;;;;;;4916149;29;20163;-59
2023/03/31 09:37:23;;;;;;;1.65;0.50;;;20.20;61.70;;;;;;4915827;29;20192;-59
2023/03/31 09:39:49;;;;;;;3.85;0.60;;;20.20;61.70;;;;;;4915463;29;20404;-59
2023/03/31 09:42:15;;;;;;;2.90;0.98;;;20.20;61.70;;;;;;4916855;29;20047;-59
2023/03/31 09:44:48;;;;;;;2.75;0.60;;;20.20;61.70;;;;;;4917530;29;20043;-59
2023/03/31 09:47:18;;;;;;;2.80;0.50;;;20.20;61.70;;;;;;4899100;29;20419;-59
2023/03/31 09:49:44;;;;;;;3.80;0.73;;;20.20;61.70;;;;;;4899869;29;20087;-59
2023/03/31 09:52:31;;;;;;;3.25;0.68;;;20.20;61.70;;;;;;4916078;29;20044;-59
2023/03/31 09:54:59;;;;;;;2.85;0.60;;;20.20;61.70;;;;;;4915209;29;20059;-59
2023/03/31 09:57:37;;;;;;;3.20;0.60;;;20.20;61.70;;;;;;4899884;29;20059;-60
2023/03/31 10:00:06;;;;;;;;;;;20.20;61.80;;;;;;4900027;29;20391;-59
2023/03/31 10:02:31;;;;;;;2.65;0.70;;;20.20;61.70;;;;;;4914051;29;19926;-59
2023/03/31 10:04:57;;;;;;;2.45;0.50;;;20.20;61.80;;;;;;4916940;29;20048;-59
2023/03/31 10:07:23;;;;;;;2.15;0.60;;;20.20;61.90;;;;;;4915967;29;20373;-59
2023/03/31 10:09:48;;;;;;;2.05;0.77;;;20.20;61.90;;;;;;4922796;29;20044;-60
2023/03/31 10:12:23;;;;;;;2.80;0.68;;;20.20;61.90;;;;;;4901874;29;20047;-60
2023/03/31 10:14:53;;;;;;;2.10;0.70;;;20.20;61.90;;;;;;4918033;29;20479;-60
2023/03/31 10:17:22;;;;;;;3.53;0.57;;;20.20;62.00;;;;;;4935155;29;20111;-60
2023/03/31 10:19:58;;;;;;;2.67;0.70;;;20.20;62.00;;;;;;4935918;29;20071;-60
2023/03/31 10:22:27;;;;;;;4.15;0.70;;;20.20;62.10;;;;;;4917660;29;20182;-60
2023/03/31 10:24:53;;;;;;;1.83;0.50;;;20.20;62.10;;;;;;4935870;29;20040;-60
2023/03/31 10:27:26;;;;;;;2.28;0.50;;;20.20;62.20;;;;;;4935124;29;20043;-60
2023/03/31 10:29:56;;;;;;;4.57;0.60;;;20.20;62.20;;;;;;4918526;29;20491;-60
2023/03/31 10:32:29;;;;;;;3.25;0.50;;;20.20;62.30;;;;;;4907066;29;20040;-60
2023/03/31 10:35:03;;;;;;;1.27;0.43;;;20.20;62.40;;;;;;4931465;29;20063;-60
2023/03/31 10:37:28;;;;;;;3.15;0.90;;;20.20;62.30;;;;;;4918397;29;20075;-60
2023/03/31 10:39:59;;;;;;;2.58;0.50;;;20.20;62.20;;;;;;4916404;29;20480;-60
2023/03/31 10:42:24;;;;;;;3.50;0.70;;;20.30;62.40;;;;;;4928787;29;20075;-60
2023/03/31 10:44:55;;;;;;;1.95;0.57;;;20.30;62.50;;;;;;4933194;29;20059;-60
2023/03/31 10:47:21;;;;;;;1.05;0.50;;;20.30;62.40;;;;;;4933093;29;20174;-60
2023/03/31 10:49:48;;;;;;;3.50;0.60;;;20.30;62.50;;;;;;4934561;29;20138;-60
2023/03/31 10:52:18;;;;;;;3.78;0.73;;;20.30;62.70;;;;;;4934805;29;20048;-60
2023/03/31 10:54:56;;;;;;;3.53;0.70;;;20.30;62.80;;;;;;4917952;29;20043;-61
2023/03/31 10:57:31;;;;;;;4.57;0.60;;;20.30;62.80;;;;;;4932903;29;20048;-60
2023/03/31 11:00:04;;;;;;;4.35;0.60;;;20.30;62.70;;;;;;4916116;29;20047;-61
2023/03/31 11:02:47;;;;;;;4.72;1.00;;;20.30;62.70;;;;;;4935008;29;20047;-61
2023/03/31 11:05:12;;;;;;;5.55;0.60;;;20.30;62.70;;;;;;4933854;29;20055;-61
2023/03/31 11:07:58;;;;;;;6.90;0.70;;;20.30;62.70;;;;;;4917690;29;20047;-61
2023/03/31 11:10:57;;;;;;;3.47;0.80;;;20.30;62.70;;;;;;4908860;29;20462;-61
2023/03/31 11:13:35;;;;;;;5.60;0.70;;;20.30;62.70;;;;;;4934505;29;20411;-60
2023/03/31 11:16:19;;;;;;;4.25;0.70;;;20.30;62.70;;;;;;4916796;29;20051;-61
2023/03/31 11:18:52;;;;;;;3.15;0.73;;;20.30;62.70;;;;;;4934087;29;20035;-61
2023/03/31 11:21:20;;;;;;;4.03;0.65;;;20.30;62.80;;;;;;4921443;29;20118;-61
2023/03/31 11:23:49;;;;;;;3.87;0.63;;;20.30;62.80;;;;;;4903621;29;20092;-61
2023/03/31 11:26:33;;;;;;;2.03;0.60;;;20.30;62.80;;;;;;4937631;29;20479;-61
2023/03/31 11:29:37;;;;;;;1.63;0.30;;;20.30;62.90;;;;;;4937624;29;20537;-61
2023/03/31 11:32:27;;;;;;;2.88;0.50;;;20.30;62.90;;;;;;4937400;29;20043;-62
2023/03/31 11:35:22;;;;;;;1.90;0.45;;;20.30;62.90;;;;;;4904037;29;20036;-61
2023/03/31 11:38:23;;;;;;;6.72;0.47;;;20.30;62.90;;;;;;4924612;29;20064;-62
2023/03/31 11:40:54;;;;;;;1.02;0.43;;;20.40;63.00;;;;;;4935851;29;20040;-61
2023/03/31 11:43:32;;;;;;;2.95;0.40;;;20.30;63.00;;;;;;4937716;29;20395;-61
2023/03/31 11:46:01;;;;;;;3.72;0.57;;;20.40;63.10;;;;;;4937243;29;20479;-60
2023/03/31 11:48:35;;;;;;;2.03;0.50;;;20.40;63.00;;;;;;4921993;29;20051;-61
2023/03/31 11:51:02;;;;;;;4.72;0.70;;;20.40;63.10;;;;;;4938010;29;20451;-60
2023/03/31 11:53:32;;;;;;;4.05;0.60;;;20.40;63.10;;;;;;4920686;29;20043;-60
2023/03/31 11:55:58;;;;;;;2.25;0.55;;;20.40;63.10;;;;;;4921284;29;20574;-60
2023/03/31 11:58:40;;;;;;;1.73;0.52;;;20.40;63.00;;;;;;4920905;29;20123;-60
2023/03/31 12:01:20;;;;;;;6.40;0.60;;;20.40;63.00;;;;;;4922161;29;20046;-61
2023/03/31 12:03:55;;;;;;;10.90;0.73;;;20.50;63.20;;;;;;4922449;29;20103;-62
2023/03/31 12:06:22;;;;;;;3.85;0.50;;;20.50;63.10;;;;;;4920729;29;20051;-63
2023/03/31 12:09:03;;;;;;;3.28;0.60;;;20.50;63.00;;;;;;4920823;29;20048;-62
2023/03/31 12:11:55;;;;;;;5.60;0.60;;;20.50;63.10;;;;;;4921299;29;20091;-62
2023/03/31 12:14:31;;;;;;;2.70;0.65;;;20.60;62.80;;;;;;4905246;29;20601;-61
2023/03/31 12:17:17;;;;;;;3.40;0.50;;;20.60;62.60;;;;;;4920763;29;20043;-61
2023/03/31 12:19:45;;;;;;;11.43;0.77;;;20.60;62.60;;;;;;4936611;29;20538;-59
2023/03/31 12:22:39;;;;;;;3.90;0.45;;;20.60;62.50;;;;;;4919867;29;20055;-60
2023/03/31 12:25:08;;;;;;;4.70;0.90;;;20.60;62.40;;;;;;4904022;29;20052;-59
2023/03/31 12:27:40;;;;;;;5.22;0.88;;;20.70;62.50;;;;;;4920237;29;20062;-58
2023/03/31 12:30:10;;;;;;;8.98;1.48;;;20.70;62.40;;;;;;4936687;29;20514;-60
2023/03/31 12:32:40;;;;;;;9.38;1.70;;;20.80;62.40;;;;;;4936790;29;20051;-60
2023/03/31 12:35:27;;;;;;;6.75;1.23;;;20.80;62.20;;;;;;4920092;29;20142;-60
2023/03/31 12:38:15;;;;;;;8.02;1.30;;;20.80;62.00;;;;;;4923021;29;20059;-59
2023/03/31 12:40:54;;;;;;;8.17;1.03;;;20.80;61.80;;;;;;4920698;29;20051;-59
2023/03/31 12:43:41;;;;;;;7.70;1.27;;;20.80;62.00;;;;;;4919334;29;20487;-59
2023/03/31 12:46:29;;;;;;;5.22;1.70;;;20.80;62.70;;;;;;4919767;29;20059;-59
2023/03/31 12:49:35;;;;;;;8.48;1.00;;;20.80;62.20;;;;;;4919595;29;20040;-59
2023/03/31 12:52:26;;;;;;;7.10;1.10;;;20.80;62.30;;;;;;4913570;29;20423;-59
2023/03/31 12:54:58;;;;;;;5.70;1.35;;;20.80;62.30;;;;;;4936938;29;20475;-59
2023/03/31 12:57:25;;;;;;;5.20;1.20;;;20.80;62.40;;;;;;4901838;29;20052;-59
2023/03/31 13:00:19;;;;;;;7.50;1.40;;;20.80;62.50;;;;;;4917664;29;20376;-59
2023/03/31 13:02:45;;;;;;;4.82;1.00;;;20.80;62.60;;;;;;4917008;29;20044;-59
2023/03/31 13:05:39;;;;;;;7.50;1.15;;;20.80;62.60;;;;;;4899911;29;20044;-60
2023/03/31 13:08:08;;;;;;;6.40;1.17;;;20.80;62.70;;;;;;4901099;29;20048;-62
2023/03/31 13:10:57;;;;;;;4.03;0.95;;;20.80;62.70;;;;;;4900174;29;20131;-61
2023/03/31 13:13:22;;;;;;;7.95;1.30;;;20.80;62.70;;;;;;4900749;29;20052;-60
2023/03/31 13:15:58;;;;;;;6.70;1.10;;;20.80;62.70;;;;;;4918178;29;20516;-60
2023/03/31 13:18:24;;;;;;;5.95;1.05;;;20.80;62.80;;;;;;4916119;29;20052;-59
2023/03/31 13:21:00;;;;;;;8.40;1.17;;;20.80;63.00;;;;;;4916730;29;20491;-60
2023/03/31 13:23:27;;;;;;;7.85;1.60;;;20.80;63.20;;;;;;4922113;29;20098;-59
2023/03/31 13:25:54;;;;;;;5.50;1.00;;;20.80;63.20;;;;;;4935533;29;20040;-59
2023/03/31 13:28:41;;;;;;;5.68;1.20;;;20.80;63.30;;;;;;4936057;29;20048;-59
2023/03/31 13:31:11;;;;;;;5.80;0.98;;;20.80;63.30;;;;;;4935335;29;20047;-60
2023/03/31 13:33:45;;;;;;;4.50;0.90;;;20.80;64.00;;;;;;4918413;29;20102;-60
2023/03/31 13:36:16;;;;;;;5.97;0.90;;;20.80;63.40;;;;;;4935930;29;20051;-59
2023/03/31 13:39:41;;;;;;;5.75;1.23;;;20.80;63.50;;;;;;4935268;29;20796;-60
2023/03/31 13:42:44;;;;;;;5.10;1.05;;;20.80;63.40;;;;;;4888457;29;20055;-60
2023/03/31 13:45:15;;;;;;;4.57;0.90;;;20.80;63.50;;;;;;4933055;29;20084;-59
2023/03/31 13:48:38;;;;;;;4.75;1.00;;;20.80;63.50;;;;;;4915276;29;20047;-60
2023/03/31 13:51:34;;;;;;;4.72;1.30;;;20.70;63.40;;;;;;4895122;29;20044;-60
2023/03/31 13:54:34;;;;;;;5.00;1.20;;;20.70;63.50;;;;;;4894647;29;20076;-60
2023/03/31 13:57:21;;;;;;;4.22;1.02;;;20.70;63.50;;;;;;4913470;29;20056;-60
2023/03/31 14:00:11;;;;;;;7.30;1.00;;;20.70;63.50;;;;;;4929671;29;20052;-60
2023/03/31 14:03:10;;;;;;;6.97;1.40;;;20.70;63.50;;;;;;4935389;29;20084;-60
2023/03/31 14:06:14;;;;;;;5.35;1.33;;;20.70;63.50;;;;;;4936046;29;20115;-60
2023/03/31 14:08:49;;;;;;;5.68;1.10;;;20.70;63.50;;;;;;4935511;29;20122;-60
2023/03/31 14:11:29;;;;;;;4.78;1.10;;;20.70;63.60;;;;;;4935605;29;20044;-60
2023/03/31 14:14:10;;;;;;;5.68;1.15;;;20.70;63.60;;;;;;4935429;29;20110;-60
2023/03/31 14:16:37;;;;;;;6.75;1.08;;;20.70;63.60;;;;;;4918683;29;20051;-60
2023/03/31 14:19:34;;;;;;;3.65;0.80;;;20.70;63.60;;;;;;4935364;29;20051;-60
2023/03/31 14:22:21;;;;;;;3.42;0.88;;;20.70;63.60;;;;;;4934617;29;20376;-59
2023/03/31 14:25:08;;;;;;;5.95;1.05;;;20.70;63.70;;;;;;4935231;29;20047;-60
2023/03/31 14:27:52;;;;;;;5.53;0.90;;;20.70;63.60;;;;;;4902379;29;20408;-60
2023/03/31 14:30:29;;;;;;;4.28;1.10;;;20.70;63.60;;;;;;4935077;29;20067;-60
2023/03/31 14:33:15;;;;;;;4.35;0.82;;;20.60;63.50;;;;;;4902385;29;20040;-60
2023/03/31 14:36:18;;;;;;;4.03;0.80;;;20.60;63.50;;;;;;4934866;29;20099;-60
2023/03/31 14:38:44;;;;;;;5.20;1.05;;;20.60;63.50;;;;;;4924230;29;20051;-60
2023/03/31 14:41:16;;;;;;;6.18;1.00;;;20.60;63.50;;;;;;4919216;29;20403;-60
2023/03/31 14:43:47;;;;;;;4.00;0.80;;;20.60;63.50;;;;;;4928484;29;20055;-59
2023/03/31 14:46:18;;;;;;;5.68;1.00;;;20.60;63.50;;;;;;4918277;29;20044;-60
2023/03/31 14:48:44;;;;;;;3.60;0.82;;;20.60;63.40;;;;;;4914691;29;20115;-60
2023/03/31 14:51:10;;;;;;;3.42;0.82;;;20.60;63.30;;;;;;4915897;29;20627;-60
2023/03/31 14:53:36;;;;;;;5.70;1.50;;;20.60;63.20;;;;;;4912248;29;20043;-60
2023/03/31 14:56:10;;;;;;;4.55;1.15;;;20.60;63.20;;;;;;4933991;29;20050;-60
2023/03/31 14:58:38;;;;;;;3.83;0.88;;;20.60;63.10;;;;;;4902213;29;20048;-60
2023/03/31 15:01:05;;;;;;;2.95;1.05;;;20.60;63.00;;;;;;4918026;29;20107;-60
2023/03/31 15:03:35;;;;;;;8.02;1.98;;;20.60;63.00;;;;;;4917224;29;20043;-60
2023/03/31 15:06:01;;;;;;;6.38;2.00;;;20.50;63.10;;;;;;4934769;29;20044;-60
2023/03/31 15:08:28;;;;;;;6.63;1.40;;;20.50;63.40;;;;;;4917788;29;20100;-60
2023/03/31 15:10:55;;;;;;;6.38;1.50;;;20.50;63.50;;;;;;4917785;29;20054;-60
2023/03/31 15:13:34;;;;;;;5.38;1.20;;;20.60;63.60;;;;;;4917158;29;20087;-60
2023/03/31 15:16:22;;;;;;;6.65;1.58;;;20.60;63.70;;;;;;4917016;29;20521;-60
2023/03/31 15:18:47;;;;;;;5.95;1.13;;;20.60;63.70;;;;;;4916955;29;20040;-61
2023/03/31 15:21:20;;;;;;;5.88;1.30;;;20.50;63.60;;;;;;4915054;29;20051;-60
2023/03/31 15:23:46;;;;;;;6.97;1.40;;;20.60;63.60;;;;;;4934358;29;20380;-60
2023/03/31 15:26:12;;;;;;;8.10;1.38;;;20.50;63.50;;;;;;4932766;29;20498;-60
2023/03/31 15:28:53;;;;;;;5.32;1.35;;;20.60;63.60;;;;;;4917164;29;20047;-60
2023/03/31 15:31:19;;;;;;;9.65;1.50;;;20.60;63.60;;;;;;4916512;29;20040;-61
2023/03/31 15:33:45;;;;;;;6.85;1.45;;;20.60;63.70;;;;;;4901824;29;20046;-61
2023/03/31 15:36:10;;;;;;;7.38;1.48;;;20.60;63.70;;;;;;4916927;29;20039;-61
2023/03/31 15:38:36;;;;;;;8.45;1.55;;;20.60;63.70;;;;;;4933790;29;20055;-60
2023/03/31 15:41:01;;;;;;;5.40;1.05;;;20.60;63.80;;;;;;4917313;29;20040;-60
2023/03/31 15:43:40;;;;;;;5.97;1.60;;;20.50;63.80;;;;;;4917948;29;20495;-60
2023/03/31 15:46:08;;;;;;;6.50;1.20;;;20.60;63.90;;;;;;4933510;29;20547;-60